Time;durP1;ratioP1;P1;durP2;ratioP2;P2;SDS_P1;SDS_P2;PMS_P1;PMS_P2;Temp;Humidity;BMP_temperature;BMP_pressure;BME280_temperature;BME280_humidity;BME280_pressure;Samples;Min_cycle;Max_cycle;Signal;HPM_P1;HPM_P2
2021/05/23 00:01:24;;;;;;;26.70;23.90;;;;;;;10.05;87.21;100957.34;5135373;27;20099;-40
2021/05/23 00:03:49;;;;;;;25.30;22.70;;;;;;;10.09;87.24;100951.47;5136284;27;20027;-40
2021/05/23 00:06:15;;;;;;;23.15;20.95;;;;;;;10.10;87.39;100961.22;5135600;27;20027;-40
2021/05/23 00:08:40;;;;;;;23.52;21.13;;;;;;;10.07;87.23;100952.53;5135599;27;20114;-40
2021/05/23 00:11:08;;;;;;;25.10;22.53;;;;;;;10.06;87.46;100955.47;5136319;27;20068;-40
2021/05/23 00:13:46;;;;;;;26.08;23.33;;;;;;;10.02;87.74;100954.25;5135331;27;20031;-40
2021/05/23 00:16:22;;;;;;;24.83;22.33;;;;;;;10.04;87.82;100954.84;5135316;27;20398;-40
2021/05/23 00:18:50;;;;;;;;;;;;;;;10.15;86.14;100958.66;5135605;27;20470;-40
2021/05/23 00:21:17;;;;;;;23.17;20.83;;;;;;;10.05;86.55;100953.78;5135275;27;19907;-40
2021/05/23 00:23:43;;;;;;;24.23;21.73;;;;;;;10.03;86.83;100955.91;5134783;27;20106;-40
2021/05/23 00:26:09;;;;;;;23.60;21.10;;;;;;;10.00;87.31;100961.75;5135712;27;20521;-40
2021/05/23 00:28:35;;;;;;;24.70;22.25;;;;;;;10.00;87.51;100957.19;5135076;27;20073;-40
2021/05/23 00:31:03;;;;;;;24.23;21.67;;;;;;;10.04;87.56;100958.38;5135833;27;20084;-40
2021/05/23 00:33:28;;;;;;;22.80;20.65;;;;;;;10.04;87.47;100955.66;5134897;27;20067;-40
2021/05/23 00:35:53;;;;;;;24.17;21.80;;;;;;;10.03;87.45;100958.59;5135236;27;20031;-40
2021/05/23 00:38:19;;;;;;;24.37;21.87;;;;;;;9.97;87.80;100957.63;5134806;27;20418;-40
2021/05/23 00:40:44;;;;;;;23.90;21.43;;;;;;;10.00;86.91;100965.28;5135709;27;20029;-40
2021/05/23 00:43:16;;;;;;;22.80;20.57;;;;;;;10.03;87.47;100959.41;5134062;27;20027;-40
2021/05/23 00:45:42;;;;;;;22.70;20.42;;;;;;;10.00;87.60;100957.19;5134987;27;20178;-40
2021/05/23 00:48:08;;;;;;;24.30;21.85;;;;;;;10.02;87.86;100960.47;5134658;27;20035;-40
2021/05/23 00:50:34;;;;;;;24.02;21.67;;;;;;;10.00;87.36;100959.88;5135477;27;20053;-40
2021/05/23 00:53:00;;;;;;;;;;;;;;;10.07;87.00;100957.09;5135048;27;20026;-40
2021/05/23 00:55:26;;;;;;;22.25;20.02;;;;;;;10.01;87.22;100958.84;5134896;27;19911;-40
2021/05/23 00:57:51;;;;;;;22.17;20.05;;;;;;;9.97;87.48;100960.31;5134219;27;20026;-40
2021/05/23 01:00:42;;;;;;;23.85;21.52;;;;;;;9.98;87.47;100967.38;5134735;27;20490;-40
2021/05/23 01:03:30;;;;;;;22.92;20.35;;;;;;;9.98;87.47;100964.69;5134410;27;20071;-40
2021/05/23 01:06:04;;;;;;;23.73;21.33;;;;;;;9.93;87.31;100964.53;5111828;28;20039;-40
2021/05/23 01:08:30;;;;;;;23.95;21.45;;;;;;;9.93;87.70;100977.19;5111909;28;20035;-40
2021/05/23 01:11:23;;;;;;;24.33;21.83;;;;;;;9.93;88.12;100972.63;5111618;28;20046;-40
2021/05/23 01:13:57;;;;;;;23.35;20.98;;;;;;;9.89;88.46;100971.41;5031006;28;20184;-40
2021/05/23 01:16:32;;;;;;;22.13;19.75;;;;;;;9.91;87.65;100968.50;5031451;28;20041;-40
2021/05/23 01:19:16;;;;;;;22.63;20.30;;;;;;;9.97;87.97;100981.94;5031299;28;20041;-40
2021/05/23 01:21:47;;;;;;;21.92;19.73;;;;;;;9.91;87.85;100980.13;5031210;28;20434;-40
2021/05/23 01:24:38;;;;;;;23.58;21.10;;;;;;;9.94;88.10;100974.28;5030785;28;20485;-40
2021/05/23 01:27:06;;;;;;;23.13;20.70;;;;;;;9.88;87.97;100977.06;5031029;28;20455;-40
2021/05/23 01:29:33;;;;;;;23.00;20.70;;;;;;;9.86;88.54;100979.97;5030867;28;20037;-40
2021/05/23 01:31:59;;;;;;;23.40;20.90;;;;;;;9.80;87.85;100978.16;5031474;28;20041;-40
2021/05/23 01:34:25;;;;;;;22.30;19.83;;;;;;;9.82;88.11;100981.47;5031109;28;20128;-40
2021/05/23 01:36:53;;;;;;;22.08;19.77;;;;;;;9.83;88.65;100980.41;5030811;28;20096;-40
2021/05/23 01:39:19;;;;;;;21.70;19.55;;;;;;;9.87;88.36;100984.34;5030775;28;20045;-40
2021/05/23 01:41:46;;;;;;;23.35;20.27;;;;;;;9.81;88.21;100979.81;5031164;28;20033;-40
2021/05/23 01:44:12;;;;;;;23.75;21.27;;;;;;;9.87;88.58;100983.50;5050724;28;20041;-40
2021/05/23 01:46:39;;;;;;;23.40;20.90;;;;;;;9.89;88.74;100989.50;5050479;28;20029;-40
2021/05/23 01:49:05;;;;;;;24.52;21.85;;;;;;;9.91;88.28;100979.31;5050484;28;20037;-40
2021/05/23 01:51:30;;;;;;;24.23;21.60;;;;;;;9.89;88.30;100978.69;5113484;28;20039;-40
2021/05/23 01:53:56;;;;;;;25.38;22.77;;;;;;;9.88;87.71;100977.88;5133868;27;20034;-40
2021/05/23 01:56:21;;;;;;;24.33;21.87;;;;;;;9.93;88.55;100978.03;5138894;27;20077;-40
2021/05/23 01:58:46;;;;;;;25.67;22.83;;;;;;;9.89;88.82;100981.41;5138223;27;20027;-40
2021/05/23 02:01:12;;;;;;;25.43;22.60;;;;;;;9.95;87.78;100991.31;5138791;27;20118;-40
2021/05/23 02:03:38;;;;;;;27.70;24.80;;;;;;;9.94;88.33;100993.19;5138155;27;20301;-40
2021/05/23 02:06:04;;;;;;;28.38;25.35;;;;;;;9.93;87.91;100990.72;5137847;27;20334;-40
2021/05/23 02:08:32;;;;;;;28.92;25.83;;;;;;;9.93;88.46;100994.25;5138332;27;20023;-40
2021/05/23 02:11:08;;;;;;;32.22;26.80;;;;;;;9.92;88.43;100998.00;5137745;27;20035;-40
2021/05/23 02:13:38;;;;;;;29.58;26.30;;;;;;;9.94;88.41;100993.19;5137748;27;20027;-40
2021/05/23 02:16:05;;;;;;;28.38;25.48;;;;;;;9.90;88.29;100985.75;5137410;27;20057;-40
2021/05/23 02:18:35;;;;;;;29.80;26.63;;;;;;;9.97;88.03;100994.63;5137615;27;20027;-40
2021/05/23 02:21:01;;;;;;;32.15;27.35;;;;;;;9.98;88.46;100990.88;5138165;27;20367;-40
2021/05/23 02:23:26;;;;;;;31.35;28.00;;;;;;;9.89;88.58;100984.91;5137477;27;20034;-40
2021/05/23 02:25:52;;;;;;;29.42;26.08;;;;;;;9.97;88.61;101000.03;5137501;27;20511;-40
2021/05/23 02:28:19;;;;;;;30.17;27.02;;;;;;;9.93;88.54;100994.25;5137687;27;20023;-40
2021/05/23 02:30:56;;;;;;;31.88;28.20;;;;;;;9.90;88.52;100985.75;5137449;27;20073;-40
2021/05/23 02:33:23;;;;;;;30.33;27.15;;;;;;;9.93;88.59;100993.41;5137611;27;20122;-40
2021/05/23 02:35:54;;;;;;;31.08;27.83;;;;;;;9.90;88.28;100993.84;5137037;27;20055;-40
2021/05/23 02:38:20;;;;;;;33.08;29.65;;;;;;;9.88;88.02;100998.66;5137182;27;20031;-40
2021/05/23 02:40:47;;;;;;;32.42;29.00;;;;;;;9.87;88.75;100995.13;5137275;27;20023;-40
2021/05/23 02:43:13;;;;;;;32.60;29.08;;;;;;;9.87;88.67;100991.59;5137097;27;20076;-40
2021/05/23 02:45:39;;;;;;;29.65;26.67;;;;;;;9.88;88.08;100998.66;5137812;27;20031;-40
2021/05/23 02:48:06;;;;;;;30.67;27.33;;;;;;;9.85;87.81;100997.22;5136784;27;20038;-40
2021/05/23 02:50:35;;;;;;;28.80;25.80;;;;;;;9.88;87.63;100995.97;5136652;27;20566;-40
2021/05/23 02:53:01;;;;;;;30.35;27.20;;;;;;;9.85;88.35;100994.50;5137456;27;20021;-40
2021/05/23 02:55:27;;;;;;;29.42;26.42;;;;;;;9.79;87.86;100993.53;5137187;27;20428;-40
2021/05/23 02:57:53;;;;;;;;;;;;;;;9.90;87.64;100991.97;5137220;27;20019;-40
2021/05/23 03:00:22;;;;;;;29.17;25.55;;;;;;;9.82;88.15;101002.25;5137113;27;19918;-40
2021/05/23 03:02:49;;;;;;;27.05;24.30;;;;;;;9.78;87.84;100997.28;5136752;27;20571;-40
2021/05/23 03:05:18;;;;;;;28.38;24.92;;;;;;;9.74;88.89;101006.88;5137231;27;20019;-40
2021/05/23 03:07:48;;;;;;;26.60;23.83;;;;;;;9.74;88.53;101006.06;5135757;27;20470;-40
2021/05/23 03:10:17;;;;;;;27.13;24.23;;;;;;;9.75;88.68;101003.13;5136616;27;20163;-40
2021/05/23 03:12:43;;;;;;;27.23;24.33;;;;;;;9.71;88.58;101007.34;5136751;27;20480;-40
2021/05/23 03:15:14;;;;;;;25.92;23.33;;;;;;;9.73;88.54;101009.81;5136526;27;20035;-40
2021/05/23 03:17:40;;;;;;;24.90;22.40;;;;;;;9.72;88.11;101010.84;5137231;27;20367;-40
2021/05/23 03:20:07;;;;;;;24.67;21.95;;;;;;;9.73;88.04;101013.34;5136741;27;20355;-40
2021/05/23 03:22:34;;;;;;;23.52;21.00;;;;;;;9.72;88.04;101014.38;5136338;27;20144;-40
2021/05/23 03:24:59;;;;;;;24.42;22.00;;;;;;;9.62;88.70;101002.44;5136565;27;20027;-40
2021/05/23 03:27:25;;;;;;;23.67;21.20;;;;;;;9.64;88.63;101011.94;5135250;27;20039;-40
2021/05/23 03:29:50;;;;;;;22.43;20.20;;;;;;;9.72;88.23;101017.09;5136615;27;20055;-40
2021/05/23 03:32:15;;;;;;;24.40;21.07;;;;;;;9.72;88.68;101027.88;5136218;27;20120;-40
2021/05/23 03:34:41;;;;;;;24.30;21.50;;;;;;;9.70;89.05;101027.25;5136208;27;20034;-40
2021/05/23 03:37:06;;;;;;;24.48;21.83;;;;;;;9.66;88.90;101026.06;5136113;27;20066;-40
2021/05/23 03:39:32;;;;;;;24.67;22.17;;;;;;;9.63;89.11;101025.69;5136157;27;20047;-40
2021/05/23 03:41:58;;;;;;;25.17;21.17;;;;;;;9.69;88.52;101031.00;5136814;27;20384;-40
2021/05/23 03:44:24;;;;;;;22.65;20.35;;;;;;;9.70;88.78;101027.25;5136622;27;20031;-40
2021/05/23 03:46:49;;;;;;;25.67;22.40;;;;;;;9.65;88.81;101028.97;5136081;27;20344;-40
2021/05/23 03:49:14;;;;;;;23.27;20.73;;;;;;;9.64;88.95;101030.03;5136176;27;20043;-40
2021/05/23 03:51:40;;;;;;;26.37;21.63;;;;;;;9.65;88.61;101029.81;5135903;27;20462;-40
2021/05/23 03:54:07;;;;;;;23.93;21.30;;;;;;;9.70;89.45;101029.97;5135791;27;20249;-40
2021/05/23 03:56:32;;;;;;;24.88;21.33;;;;;;;9.68;89.16;101033.94;5136484;27;20042;-40
2021/05/23 03:58:57;;;;;;;22.40;20.00;;;;;;;9.65;89.30;101031.66;5135691;27;20446;-40
2021/05/23 04:01:23;;;;;;;21.67;19.20;;;;;;;9.63;88.77;101036.47;5135917;27;20672;-40
2021/05/23 04:03:48;;;;;;;22.53;20.17;;;;;;;9.64;88.72;101038.13;5135879;27;20100;-39
2021/05/23 04:06:14;;;;;;;22.50;18.93;;;;;;;9.68;89.34;101042.88;5135487;27;20055;-39
2021/05/23 04:08:39;;;;;;;20.83;18.70;;;;;;;9.67;88.88;101054.72;5136036;27;20439;-39
2021/05/23 04:11:10;;;;;;;21.70;17.73;;;;;;;9.65;88.91;101046.00;5135819;27;20257;-39
2021/05/23 04:13:38;;;;;;;21.33;17.85;;;;;;;9.64;89.39;101047.06;5135714;27;20027;-40
2021/05/23 04:16:04;;;;;;;22.25;17.20;;;;;;;9.64;89.05;101048.94;5135388;27;20027;-39
2021/05/23 04:18:29;;;;;;;20.60;17.70;;;;;;;9.66;89.04;101057.63;5134343;27;20034;-39
2021/05/23 04:20:54;;;;;;;21.63;15.97;;;;;;;9.67;88.65;101056.59;5135353;27;20084;-39
2021/05/23 04:23:20;;;;;;;21.70;16.40;;;;;;;9.67;88.41;101060.13;5135696;27;20034;-40
2021/05/23 04:25:45;;;;;;;20.80;16.33;;;;;;;9.65;89.04;101058.69;5135100;27;20031;-39
2021/05/23 04:28:11;;;;;;;19.70;15.53;;;;;;;9.66;88.78;101061.19;5135936;27;20035;-39
2021/05/23 04:30:36;;;;;;;17.97;15.00;;;;;;;9.67;89.00;101062.00;5135376;27;20028;-39
2021/05/23 04:33:03;;;;;;;17.13;14.67;;;;;;;9.67;88.76;101072.81;5135544;27;20031;-39
2021/05/23 04:35:28;;;;;;;21.90;15.60;;;;;;;9.69;88.58;101065.28;5135012;27;20023;-39
2021/05/23 04:37:54;;;;;;;18.93;14.87;;;;;;;9.66;89.37;101068.44;5134711;27;20027;-40
2021/05/23 04:40:20;;;;;;;20.08;14.10;;;;;;;9.68;88.43;101075.28;5134474;27;20118;-40
2021/05/23 04:42:47;;;;;;;20.23;14.20;;;;;;;9.68;88.95;101077.16;5134579;27;20482;-40
2021/05/23 04:45:14;;;;;;;26.88;15.65;;;;;;;9.66;88.24;101079.22;5134665;27;20031;-40
2021/05/23 04:47:39;;;;;;;18.42;13.82;;;;;;;9.63;88.78;101076.97;5134742;27;20057;-39
2021/05/23 04:50:06;;;;;;;16.83;12.63;;;;;;;9.67;88.27;101091.69;5135123;27;20047;-39
2021/05/23 04:52:32;;;;;;;21.50;12.93;;;;;;;9.69;88.28;101093.13;5134676;27;20027;-39
2021/05/23 04:54:57;;;;;;;16.73;11.70;;;;;;;9.68;88.20;101090.66;5134935;27;20034;-39
2021/05/23 04:57:23;;;;;;;19.13;12.10;;;;;;;9.68;88.15;101094.19;5134534;27;20267;-39
2021/05/23 04:59:51;;;;;;;15.00;10.90;;;;;;;9.71;87.85;101103.69;5135056;27;20027;-39
2021/05/23 05:02:17;;;;;;;16.70;9.82;;;;;;;9.70;87.63;101099.34;5134187;27;20061;-39
2021/05/23 05:04:42;;;;;;;17.13;8.90;;;;;;;9.68;87.47;101107.69;5134119;27;20027;-39
2021/05/23 05:07:08;;;;;;;17.13;8.63;;;;;;;9.68;87.32;101107.69;5134819;27;20110;-39
2021/05/23 05:09:33;;;;;;;12.00;8.33;;;;;;;9.68;87.50;101112.25;5135112;27;20027;-39
2021/05/23 05:11:59;;;;;;;23.07;8.43;;;;;;;9.67;87.66;101107.91;5134493;27;20442;-39
2021/05/23 05:14:24;;;;;;;13.43;6.85;;;;;;;9.67;87.25;101110.59;5134722;27;20284;-39
2021/05/23 05:16:49;;;;;;;15.02;7.15;;;;;;;9.67;87.06;101119.53;5134621;27;20027;-39
2021/05/23 05:19:15;;;;;;;16.17;6.03;;;;;;;9.63;87.22;101118.31;5134421;27;20060;-39
2021/05/23 05:21:41;;;;;;;14.05;5.93;;;;;;;9.63;87.04;101114.78;5134345;27;20019;-39
2021/05/23 05:24:07;;;;;;;12.73;5.35;;;;;;;9.62;85.99;101115.84;5134921;27;20084;-39
2021/05/23 05:26:33;;;;;;;11.52;4.82;;;;;;;9.63;86.12;101112.09;5133932;27;20531;-39
2021/05/23 05:28:58;;;;;;;10.33;4.60;;;;;;;9.64;85.79;101114.56;5134932;27;20039;-39
2021/05/23 05:31:24;;;;;;;9.03;3.83;;;;;;;9.66;85.33;101119.72;5141136;27;20087;-39
2021/05/23 05:33:49;;;;;;;13.83;4.80;;;;;;;9.70;85.66;101120.94;5141104;27;20273;-40
2021/05/23 05:36:14;;;;;;;8.40;3.60;;;;;;;9.73;85.31;101125.94;5141098;27;20031;-40
2021/05/23 05:38:40;;;;;;;10.20;3.90;;;;;;;9.71;84.77;101125.31;5141309;27;20027;-39
2021/05/23 05:41:05;;;;;;;12.57;3.93;;;;;;;9.76;85.36;101134.44;5141326;27;20023;-39
2021/05/23 05:43:31;;;;;;;12.50;4.00;;;;;;;9.77;83.43;101136.06;5141394;27;20447;-40
2021/05/23 05:45:56;;;;;;;9.38;3.55;;;;;;;9.79;84.01;101135.84;5140621;27;20471;-39
2021/05/23 05:48:22;;;;;;;16.13;3.70;;;;;;;9.83;84.43;101139.78;5141430;27;20038;-39
2021/05/23 05:50:47;;;;;;;13.07;3.67;;;;;;;9.83;83.83;101145.16;5141139;27;20082;-39
2021/05/23 05:53:13;;;;;;;10.87;3.60;;;;;;;9.79;83.71;101141.25;5141302;27;20023;-39
2021/05/23 05:55:38;;;;;;;10.68;3.28;;;;;;;9.79;83.57;101147.47;5140791;27;20260;-39
2021/05/23 05:58:04;;;;;;;12.13;3.30;;;;;;;9.70;82.84;101145.25;5140586;27;20070;-39
2021/05/23 06:00:29;;;;;;;13.77;3.20;;;;;;;9.73;83.33;101144.84;5140880;27;20027;-39
2021/05/23 06:02:54;;;;;;;11.73;3.83;;;;;;;9.70;82.40;101154.19;5141121;27;20035;-40
2021/05/23 06:05:20;;;;;;;10.17;3.37;;;;;;;9.68;82.76;101153.59;5140741;27;20036;-40
2021/05/23 06:07:46;;;;;;;10.53;3.07;;;;;;;9.69;82.71;101151.72;5140702;27;20107;-40
2021/05/23 06:10:13;;;;;;;10.10;2.50;;;;;;;9.67;82.15;101160.03;5141066;27;20470;-40
2021/05/23 06:12:38;;;;;;;5.95;2.45;;;;;;;9.69;81.30;101157.09;5140706;27;20027;-40
2021/05/23 06:15:05;;;;;;;7.82;2.72;;;;;;;9.73;82.26;101167.25;5140836;27;20201;-40
2021/05/23 06:17:30;;;;;;;12.95;2.75;;;;;;;9.70;82.18;101161.47;5140287;27;20023;-40
2021/05/23 06:19:56;;;;;;;11.43;2.57;;;;;;;9.77;81.53;101164.97;5140484;27;20062;-41
2021/05/23 06:22:21;;;;;;;9.53;3.00;;;;;;;9.78;81.55;101172.00;5140694;27;20079;-40
2021/05/23 06:24:46;;;;;;;10.20;2.60;;;;;;;9.83;81.64;101174.06;5140841;27;20027;-40
2021/05/23 06:27:12;;;;;;;13.00;3.33;;;;;;;9.91;81.43;101176.50;5140669;27;20485;-40
2021/05/23 06:29:37;;;;;;;9.23;2.53;;;;;;;9.94;80.60;101178.75;5140843;27;20019;-41
2021/05/23 06:32:06;;;;;;;10.07;2.20;;;;;;;9.93;80.06;101179.81;5140553;27;20027;-40
2021/05/23 06:34:31;;;;;;;10.50;2.83;;;;;;;9.92;78.90;101187.09;5141322;27;20087;-40
2021/05/23 06:36:57;;;;;;;10.00;2.47;;;;;;;9.91;79.60;101182.75;5139285;27;20030;-41
2021/05/23 06:39:22;;;;;;;9.77;2.20;;;;;;;9.95;80.52;101189.34;5140559;27;20403;-41
2021/05/23 06:41:47;;;;;;;8.70;2.37;;;;;;;9.98;80.55;101199.72;5137228;27;20027;-41
2021/05/23 06:44:13;;;;;;;11.43;2.90;;;;;;;10.11;79.04;101192.56;5137713;27;20027;-41
2021/05/23 06:46:38;;;;;;;8.30;2.57;;;;;;;10.27;79.41;101194.75;5137060;27;20079;-40
2021/05/23 06:49:04;;;;;;;8.38;2.42;;;;;;;10.33;78.86;101204.69;5136737;27;20027;-41
2021/05/23 06:51:29;;;;;;;11.65;3.00;;;;;;;10.32;77.94;101197.63;5137286;27;20027;-40
2021/05/23 06:53:55;;;;;;;11.17;2.90;;;;;;;10.31;77.04;101209.50;5136836;27;20027;-40
2021/05/23 06:56:20;;;;;;;9.17;3.07;;;;;;;10.39;78.09;101211.91;5137641;27;20035;-41
2021/05/23 06:58:45;;;;;;;9.37;2.60;;;;;;;10.45;77.75;101213.75;5137214;27;20046;-41
2021/05/23 07:01:11;;;;;;;8.20;2.77;;;;;;;10.51;76.45;101215.56;5137391;27;20102;-39
2021/05/23 07:03:36;;;;;;;10.77;3.07;;;;;;;10.54;77.13;101227.78;5136530;27;20110;-40
2021/05/23 07:06:02;;;;;;;11.00;3.97;;;;;;;10.51;77.60;101218.25;5137272;27;20131;-40
2021/05/23 07:08:28;;;;;;;9.00;3.13;;;;;;;10.57;77.61;101221.94;5134990;27;20535;-40
2021/05/23 07:10:53;;;;;;;7.78;3.50;;;;;;;10.62;76.74;101224.00;5136420;27;20110;-40
2021/05/23 07:13:20;;;;;;;12.23;3.40;;;;;;;10.64;75.29;101224.59;5136680;27;20023;-40
2021/05/23 07:15:46;;;;;;;9.50;3.60;;;;;;;10.69;75.33;101230.19;5136336;27;20743;-41
2021/05/23 07:18:11;;;;;;;11.00;3.03;;;;;;;10.72;75.04;101227.84;5136823;27;20106;-41
2021/05/23 07:20:36;;;;;;;9.07;2.97;;;;;;;10.75;75.35;101237.41;5136832;27;20031;-41
2021/05/23 07:23:02;;;;;;;9.40;2.97;;;;;;;10.73;74.55;101231.38;5136793;27;20027;-40
2021/05/23 07:25:27;;;;;;;10.50;3.30;;;;;;;10.73;74.52;101234.06;5136590;27;20026;-40
2021/05/23 07:27:53;;;;;;;10.70;3.05;;;;;;;10.76;75.50;101226.34;5136101;27;20102;-40
2021/05/23 07:30:18;;;;;;;10.70;3.00;;;;;;;10.67;74.39;101237.66;5136940;27;20050;-40
2021/05/23 07:32:44;;;;;;;8.57;3.67;;;;;;;10.69;74.80;101236.41;5136303;27;20019;-40
2021/05/23 07:35:10;;;;;;;9.43;3.47;;;;;;;10.79;75.76;101244.03;5135940;27;20083;-40
2021/05/23 07:37:36;;;;;;;11.27;3.67;;;;;;;10.73;73.54;101242.19;5136050;27;20379;-40
2021/05/23 07:40:02;;;;;;;8.02;2.65;;;;;;;10.73;74.42;101243.00;5136385;27;20098;-44
2021/05/23 07:42:28;;;;;;;9.45;2.70;;;;;;;10.82;73.67;101241.69;5135992;27;20054;-40
2021/05/23 07:44:53;;;;;;;10.00;3.23;;;;;;;10.98;74.35;101250.25;5136186;27;20118;-40
2021/05/23 07:47:18;;;;;;;8.03;2.23;;;;;;;11.09;72.86;101241.44;5135964;27;20031;-40
2021/05/23 07:49:44;;;;;;;9.90;3.13;;;;;;;11.21;72.18;101249.63;5136645;27;20044;-40
2021/05/23 07:52:11;;;;;;;7.90;2.63;;;;;;;11.29;71.98;101241.22;5136033;27;20039;-40
2021/05/23 07:54:38;;;;;;;6.97;2.55;;;;;;;11.37;71.94;101248.19;5136328;27;20092;-39
2021/05/23 07:57:04;;;;;;;9.32;2.20;;;;;;;11.37;71.22;101251.75;5135767;27;20059;-40
2021/05/23 07:59:29;;;;;;;6.50;2.00;;;;;;;11.44;68.60;101257.91;5136295;27;20109;-40
2021/05/23 08:01:55;;;;;;;10.37;2.13;;;;;;;11.62;69.12;101254.34;5135994;27;20117;-40
2021/05/23 08:04:20;;;;;;;4.82;1.65;;;;;;;11.77;67.26;101259.38;5135864;27;20068;-40
2021/05/23 08:06:46;;;;;;;8.40;1.98;;;;;;;11.90;67.44;101264.63;5135335;27;20470;-40
2021/05/23 08:09:11;;;;;;;5.43;1.65;;;;;;;11.91;65.65;101258.16;5135139;27;20027;-40
2021/05/23 08:11:37;;;;;;;7.85;2.40;;;;;;;11.85;64.68;101269.91;5135612;27;20031;-40
2021/05/23 08:14:02;;;;;;;8.63;1.93;;;;;;;11.77;66.13;101257.47;5134232;27;20023;-40
2021/05/23 08:16:28;;;;;;;7.68;2.30;;;;;;;11.74;64.77;101279.59;5135601;27;20407;-40
2021/05/23 08:18:53;;;;;;;6.30;2.23;;;;;;;11.80;66.92;101284.09;5135425;27;20023;-40
2021/05/23 08:21:18;;;;;;;9.80;1.83;;;;;;;11.87;66.15;101283.25;5135436;27;20019;-40
2021/05/23 08:23:44;;;;;;;5.60;1.63;;;;;;;11.89;64.94;101283.81;5134828;27;20027;-40
2021/05/23 08:26:09;;;;;;;3.97;1.70;;;;;;;11.85;63.44;101294.28;5135485;27;20118;-40
2021/05/23 08:28:35;;;;;;;7.00;1.73;;;;;;;11.92;62.98;101291.50;5135086;27;20733;-41
2021/05/23 08:31:01;;;;;;;7.97;2.33;;;;;;;11.94;63.25;101298.34;5134446;27;20023;-40
2021/05/23 08:33:26;;;;;;;;;;;;;;;12.08;64.69;101302.53;5135748;27;20042;-41
2021/05/23 08:35:52;;;;;;;9.55;2.08;;;;;;;11.97;61.99;101300.59;5135259;27;19907;-40
2021/05/23 08:38:17;;;;;;;6.97;1.93;;;;;;;11.94;61.07;101309.19;5134715;27;20060;-41
2021/05/23 08:40:43;;;;;;;6.87;1.60;;;;;;;11.90;60.55;101310.69;5135512;27;20041;-40
2021/05/23 08:43:09;;;;;;;7.07;2.00;;;;;;;11.91;60.24;101319.66;5134860;27;20421;-40
2021/05/23 08:45:36;;;;;;;4.72;1.45;;;;;;;11.98;61.22;101320.41;5135631;27;20023;-41
2021/05/23 08:48:02;;;;;;;7.65;2.22;;;;;;;12.02;60.06;101321.59;5134989;27;20035;-41
2021/05/23 08:50:28;;;;;;;7.20;1.90;;;;;;;12.07;59.78;101336.13;5135113;27;20399;-40
2021/05/23 08:52:56;;;;;;;3.33;1.23;;;;;;;12.14;60.26;101319.75;5134656;27;20470;-40
2021/05/23 08:55:21;;;;;;;8.05;1.70;;;;;;;12.25;59.92;101332.56;5134572;27;20035;-40
2021/05/23 08:57:51;;;;;;;6.80;1.85;;;;;;;12.37;58.19;101325.28;5134544;27;20061;-40
2021/05/23 09:00:18;;;;;;;5.22;1.55;;;;;;;12.41;58.16;101328.34;5134429;27;20030;-41
2021/05/23 09:03:15;;;;;;;5.68;1.75;;;;;;;12.55;59.38;101326.28;5134363;27;20030;-40
2021/05/23 09:05:45;;;;;;;3.58;1.48;;;;;;;12.40;58.36;101342.16;5090623;28;20085;-41
2021/05/23 09:08:14;;;;;;;2.97;1.42;;;;;;;12.33;59.48;101340.34;5091189;28;20067;-40
2021/05/23 09:10:40;;;;;;;8.07;1.77;;;;;;;12.28;58.38;101345.63;5091217;28;20086;-40
2021/05/23 09:13:06;;;;;;;4.18;1.50;;;;;;;12.32;58.54;101359.56;5090988;28;20024;-40
2021/05/23 09:15:31;;;;;;;5.15;1.83;;;;;;;12.50;57.85;101355.97;5091337;28;20040;-40
2021/05/23 09:18:06;;;;;;;5.13;1.60;;;;;;;12.82;58.99;101354.63;5090993;28;20467;-40
2021/05/23 09:20:33;;;;;;;4.35;1.30;;;;;;;13.22;56.23;101350.44;5091595;28;20093;-40
2021/05/23 09:22:59;;;;;;;7.43;2.03;;;;;;;13.64;57.93;101353.84;5091144;28;20047;-41
2021/05/23 09:25:28;;;;;;;;;;;;;;;13.95;56.97;101362.63;5091681;28;20113;-40
2021/05/23 09:27:54;;;;;;;6.95;1.50;;;;;;;13.84;53.51;101348.00;5090969;28;19997;-44
2021/05/23 09:30:26;;;;;;;3.72;1.10;;;;;;;14.16;53.10;101351.94;5090947;28;20086;-40
2021/05/23 09:32:54;;;;;;;7.40;1.50;;;;;;;14.37;52.71;101357.75;5073937;28;20063;-40
2021/05/23 09:35:21;;;;;;;6.85;1.60;;;;;;;14.20;52.76;101368.59;5091034;28;20043;-40
2021/05/23 09:37:57;;;;;;;;;;;;;;;14.17;53.32;101361.75;5091272;28;20028;-40
2021/05/23 09:40:24;;;;;;;8.20;1.80;;;;;;;13.73;53.38;101371.44;5090785;28;19912;-41
2021/05/23 09:42:52;;;;;;;3.63;0.95;;;;;;;13.59;51.82;101375.47;5127314;28;20039;-40
2021/05/23 09:45:19;;;;;;;3.83;1.30;;;;;;;13.54;53.78;101367.22;5133726;27;20053;-40
2021/05/23 09:47:58;;;;;;;3.63;1.20;;;;;;;13.50;50.80;101366.84;5133935;27;20023;-40
2021/05/23 09:50:40;;;;;;;5.35;1.20;;;;;;;13.87;52.49;101366.56;5134239;27;20088;-40
2021/05/23 09:53:24;;;;;;;5.72;1.50;;;;;;;14.23;50.71;101372.72;5134189;27;20116;-41
2021/05/23 09:56:00;;;;;;;4.05;1.00;;;;;;;14.64;50.20;101366.16;5133977;27;20030;-40
2021/05/23 09:58:35;;;;;;;3.70;1.00;;;;;;;14.85;48.76;101367.34;5133897;27;20023;-40
2021/05/23 10:01:01;;;;;;;6.45;1.45;;;;;;;14.75;46.63;101369.91;5134165;27;20027;-40
2021/05/23 10:03:29;;;;;;;4.57;1.75;;;;;;;14.85;46.21;101373.63;5133590;27;20140;-40
2021/05/23 10:05:55;;;;;;;6.28;2.03;;;;;;;14.81;46.21;101372.47;5134135;27;20028;-41
2021/05/23 10:08:20;;;;;;;3.20;1.10;;;;;;;14.99;46.10;101371.41;5134040;27;20493;-40
2021/05/23 10:10:47;;;;;;;4.18;1.38;;;;;;;15.06;45.74;101382.94;5133903;27;20048;-40
2021/05/23 10:13:13;;;;;;;3.72;1.20;;;;;;;15.18;44.98;101377.44;5133737;27;20019;-40
2021/05/23 10:15:39;;;;;;;;;;;;;;;15.34;44.86;101383.94;5134633;27;20481;-40
2021/05/23 10:18:06;;;;;;;5.37;1.73;;;;;;;15.19;42.49;101384.53;5137413;27;19908;-40
2021/05/23 10:20:31;;;;;;;4.70;1.10;;;;;;;15.29;42.24;101381.13;5137918;27;20392;-41
2021/05/23 10:23:07;;;;;;;3.30;0.93;;;;;;;15.32;43.96;101381.44;5137688;27;20035;-40
2021/05/23 10:25:34;;;;;;;3.25;1.08;;;;;;;15.49;43.10;101384.16;5137714;27;20102;-40
2021/05/23 10:28:01;;;;;;;4.03;1.10;;;;;;;15.72;44.97;101376.88;5137650;27;20419;-40
2021/05/23 10:30:27;;;;;;;7.93;1.13;;;;;;;16.01;45.20;101383.81;5137778;27;20023;-41
2021/05/23 10:32:52;;;;;;;5.82;1.00;;;;;;;16.09;42.70;101386.06;5137390;27;20035;-41
2021/05/23 10:35:24;;;;;;;5.13;1.30;;;;;;;16.13;41.58;101391.84;5137676;27;20074;-40
2021/05/23 10:37:52;;;;;;;3.15;1.08;;;;;;;16.13;43.08;101389.13;5138064;27;20048;-40
2021/05/23 10:40:18;;;;;;;3.83;1.40;;;;;;;15.88;43.11;101393.16;5137741;27;20106;-40
2021/05/23 10:42:55;;;;;;;4.63;1.10;;;;;;;15.55;42.65;101388.59;5136864;27;20027;-41
2021/05/23 10:45:27;;;;;;;2.78;1.33;;;;;;;15.39;43.91;101389.47;5137664;27;20027;-40
2021/05/23 10:47:55;;;;;;;5.10;1.60;;;;;;;15.50;43.53;101396.69;5137667;27;20042;-40
2021/05/23 10:50:37;;;;;;;4.57;1.33;;;;;;;15.64;42.76;101391.75;5137427;27;20047;-40
2021/05/23 10:53:04;;;;;;;5.18;1.40;;;;;;;15.79;45.93;101399.31;5137345;27;20445;-40
2021/05/23 10:55:30;;;;;;;5.18;1.38;;;;;;;15.44;44.58;101389.53;5137236;27;20027;-40
2021/05/23 10:57:57;;;;;;;2.67;1.17;;;;;;;15.19;44.21;101398.97;5137010;27;20473;-40
2021/05/23 11:00:36;;;;;;;2.22;1.00;;;;;;;15.34;45.03;101389.38;5137698;27;20023;-41
2021/05/23 11:03:24;;;;;;;3.83;1.20;;;;;;;15.61;43.66;101397.66;5136844;27;20015;-41
2021/05/23 11:06:05;;;;;;;3.33;1.17;;;;;;;15.45;44.13;101402.91;5137066;27;20060;-41
2021/05/23 11:08:32;;;;;;;5.78;1.42;;;;;;;14.88;43.34;101416.72;5137518;27;20101;-41
2021/05/23 11:10:58;;;;;;;5.45;1.60;;;;;;;14.76;43.54;101407.75;5136981;27;20023;-41
2021/05/23 11:13:26;;;;;;;;;;;;;;;15.04;45.12;101406.06;5137036;27;20061;-41
2021/05/23 11:15:52;;;;;;;2.70;1.05;;;;;;;15.16;41.13;101404.91;5136364;27;20355;-41
2021/05/23 11:18:27;;;;;;;;;;;;;;;15.53;44.81;101406.28;5136785;27;20027;-40
2021/05/23 11:20:57;;;;;;;6.70;1.15;;;;;;;15.58;42.43;101404.47;5136823;27;19993;-43
2021/05/23 11:23:23;;;;;;;6.45;1.52;;;;;;;15.75;42.66;101406.34;5136746;27;20119;-41
2021/05/23 11:25:49;;;;;;;3.60;1.02;;;;;;;15.94;41.35;101388.59;5136614;27;20114;-41